Terminal Aerodrome Forecast
Issued by NWS

Home | Current Version | Previous Version | Text Only | Print | Product List | Glossary On
Versions: 1 2 3 4 5 6 7 8 9 10 11 12 13 14 15 16 17 18 19 20
000
FTUS43 KGRB 132001 AAB
TAFRHI
TAF AMD
KRHI 132001Z 1320/1418 03009KT 1SM -SN BR OVC020
     FM132200 03006KT P6SM BKN025
     FM140300 35003KT P6SM BKN030
     FM140900 27003KT P6SM OVC018=

USA.gov is the U.S. government's official web portal to all federal, state and local government web resources and services.